Time;durP1;ratioP1;P1;durP2;ratioP2;P2;SDS_P1;SDS_P2;PMS_P1;PMS_P2;Temp;Humidity;BMP_temperature;BMP_pressure;BME280_temperature;BME280_humidity;BME280_pressure;Samples;Min_cycle;Max_cycle;Signal;HPM_P1;HPM_P2
2022/07/02 00:00:20;;;;;;;2.53;1.90;;;;;;;;;;4985811;28;20228;-67
2022/07/02 00:03:10;;;;;;;3.83;1.97;;;;;;;;;;4962978;28;20197;-64
2022/07/02 00:06:06;;;;;;;2.50;1.90;;;;;;;;;;4983621;28;20201;-64
2022/07/02 00:08:37;;;;;;;3.43;2.30;;;;;;;;;;4984815;28;20575;-64
2022/07/02 00:11:09;;;;;;;5.30;1.90;;;;;;;;;;4989514;28;20200;-64
2022/07/02 00:13:41;;;;;;;2.73;1.90;;;;;;;;;;4987307;28;20543;-65
2022/07/02 00:16:12;;;;;;;3.27;1.73;;;;;;;;;;4980193;28;20255;-64
2022/07/02 00:18:45;;;;;;;2.90;1.70;;;;;;;;;;4974251;28;20620;-65
2022/07/02 00:21:15;;;;;;;2.37;1.80;;;;;;;;;;4954990;28;20200;-64
2022/07/02 00:23:45;;;;;;;2.50;1.67;;;;;;;;;;4985398;28;20197;-64
2022/07/02 00:26:37;;;;;;;3.00;1.90;;;;;;;;;;4984140;28;20262;-64
2022/07/02 00:29:14;;;;;;;4.60;2.20;;;;;;;;;;4981022;28;20209;-65
2022/07/02 00:32:01;;;;;;;2.50;1.80;;;;;;;;;;4982151;28;20310;-64
2022/07/02 00:34:41;;;;;;;2.67;1.73;;;;;;;;;;4985947;28;20231;-65
2022/07/02 00:37:15;;;;;;;1.87;1.30;;;;;;;;;;4983306;28;20594;-65
2022/07/02 00:39:54;;;;;;;6.00;1.80;;;;;;;;;;4984253;28;20299;-64
2022/07/02 00:42:28;;;;;;;2.23;1.40;;;;;;;;;;4970412;28;20232;-64
2022/07/02 00:44:59;;;;;;;3.17;1.67;;;;;;;;;;4981051;28;20209;-64
2022/07/02 00:47:30;;;;;;;4.77;1.63;;;;;;;;;;4981423;28;20541;-64
2022/07/02 00:49:57;;;;;;;2.43;1.80;;;;;;;;;;4982435;28;20614;-64
2022/07/02 00:52:29;;;;;;;4.70;1.60;;;;;;;;;;4980688;28;20201;-65
2022/07/02 00:55:01;;;;;;;2.00;1.57;;;;;;;;;;4980707;28;20291;-65
2022/07/02 00:57:36;;;;;;;4.07;1.90;;;;;;;;;;4986764;28;20193;-64
2022/07/02 01:00:07;;;;;;;3.07;1.70;;;;;;;;;;4986594;28;20242;-65
2022/07/02 01:02:40;;;;;;;2.57;1.87;;;;;;;;;;4952539;28;20222;-65
2022/07/02 01:05:15;;;;;;;3.03;1.50;;;;;;;;;;4970288;28;20676;-64
2022/07/02 01:10:16;;;;;;;3.27;1.60;;;;;;;;;;4970633;28;20238;-65
2022/07/02 01:10:44;;;;;;;2.17;1.43;;;;;;;;;;4992867;28;20258;-64
2022/07/02 01:13:20;;;;;;;2.73;1.60;;;;;;;;;;4969321;28;20208;-65
2022/07/02 01:15:51;;;;;;;2.10;1.70;;;;;;;;;;4978241;28;20259;-64
2022/07/02 01:18:20;;;;;;;3.87;1.90;;;;;;;;;;4987170;28;20259;-65
2022/07/02 01:21:01;;;;;;;2.30;1.40;;;;;;;;;;4982348;28;20298;-64
2022/07/02 01:23:32;;;;;;;1.73;1.50;;;;;;;;;;4968462;28;20698;-64
2022/07/02 01:26:05;;;;;;;2.67;1.50;;;;;;;;;;4987018;28;20287;-65
2022/07/02 01:28:36;;;;;;;2.77;1.73;;;;;;;;;;4962206;28;20217;-68
2022/07/02 01:31:08;;;;;;;1.87;1.47;;;;;;;;;;4979267;28;20251;-64
2022/07/02 01:33:46;;;;;;;3.73;1.63;;;;;;;;;;4987671;28;20198;-64
2022/07/02 01:36:16;;;;;;;3.87;1.90;;;;;;;;;;4989235;28;20204;-64
2022/07/02 01:38:46;;;;;;;4.40;1.60;;;;;;;;;;4983475;28;20209;-64
2022/07/02 01:44:05;;;;;;;2.63;1.57;;;;;;;;;;4968736;28;20208;-65
2022/07/02 01:46:39;;;;;;;2.03;1.50;;;;;;;;;;4985718;28;20289;-65
2022/07/02 01:49:06;;;;;;;3.23;1.70;;;;;;;;;;4979074;28;20208;-65
2022/07/02 01:51:37;;;;;;;2.23;1.50;;;;;;;;;;4982923;28;20528;-65
2022/07/02 01:54:11;;;;;;;3.77;1.50;;;;;;;;;;4986516;28;20228;-65
2022/07/02 01:56:46;;;;;;;3.67;1.60;;;;;;;;;;4982885;28;20208;-65
2022/07/02 01:59:26;;;;;;;2.27;1.50;;;;;;;;;;4986408;28;20207;-65
2022/07/02 02:01:58;;;;;;;2.00;1.70;;;;;;;;;;4984071;28;20193;-64
2022/07/02 02:04:28;;;;;;;3.83;1.70;;;;;;;;;;4982587;28;20674;-65
2022/07/02 02:06:57;;;;;;;2.17;1.43;;;;;;;;;;4984118;28;20212;-64
2022/07/02 02:09:25;;;;;;;3.37;1.60;;;;;;;;;;4986416;28;20243;-65
2022/07/02 02:11:56;;;;;;;4.03;1.80;;;;;;;;;;4985417;28;20227;-65
2022/07/02 02:14:30;;;;;;;2.63;1.57;;;;;;;;;;4968880;28;20240;-64
2022/07/02 02:16:57;;;;;;;2.97;1.87;;;;;;;;;;4962882;28;20224;-64
2022/07/02 02:19:27;;;;;;;3.40;1.70;;;;;;;;;;4978462;28;20227;-64
2022/07/02 02:21:56;;;;;;;2.70;1.50;;;;;;;;;;4960067;28;20236;-64
2022/07/02 02:24:25;;;;;;;3.73;2.10;;;;;;;;;;4961321;28;20263;-65
2022/07/02 02:26:54;;;;;;;4.60;1.50;;;;;;;;;;4978973;28;20627;-65
2022/07/02 02:29:26;;;;;;;2.93;1.67;;;;;;;;;;4980104;28;20197;-64
2022/07/02 02:31:58;;;;;;;3.43;1.83;;;;;;;;;;4981131;28;20616;-65
2022/07/02 02:34:30;;;;;;;1.50;1.40;;;;;;;;;;4984776;28;20238;-64
2022/07/02 02:37:02;;;;;;;2.00;1.33;;;;;;;;;;4982547;28;20204;-64
2022/07/02 02:39:34;;;;;;;2.50;1.67;;;;;;;;;;4947670;28;20213;-65
2022/07/02 02:42:09;;;;;;;3.10;1.80;;;;;;;;;;4965977;28;20191;-64
2022/07/02 02:44:40;;;;;;;2.17;1.40;;;;;;;;;;4981805;28;20216;-64
2022/07/02 02:47:10;;;;;;;3.47;1.50;;;;;;;;;;4988069;28;20285;-64
2022/07/02 02:49:43;;;;;;;2.80;1.60;;;;;;;;;;4984662;28;20216;-64
2022/07/02 02:52:15;;;;;;;2.63;1.80;;;;;;;;;;4983456;28;20255;-64
2022/07/02 02:54:44;;;;;;;2.47;1.63;;;;;;;;;;4984009;28;20247;-64
2022/07/02 02:57:13;;;;;;;3.43;1.70;;;;;;;;;;4983501;28;20236;-64
2022/07/02 02:59:44;;;;;;;2.17;1.50;;;;;;;;;;4989641;28;20197;-65
2022/07/02 03:02:19;;;;;;;3.40;1.60;;;;;;;;;;4986322;28;20204;-65
2022/07/02 03:04:49;;;;;;;2.80;1.37;;;;;;;;;;4982333;28;20216;-64
2022/07/02 03:07:19;;;;;;;1.90;1.60;;;;;;;;;;4988864;28;20201;-64
2022/07/02 03:09:53;;;;;;;1.93;1.40;;;;;;;;;;4973693;28;20262;-65
2022/07/02 03:12:24;;;;;;;2.10;1.50;;;;;;;;;;4969518;28;20212;-65
2022/07/02 03:14:54;;;;;;;3.73;1.73;;;;;;;;;;4974569;28;20228;-64
2022/07/02 03:17:34;;;;;;;2.93;1.23;;;;;;;;;;4986240;28;20199;-64
2022/07/02 03:20:03;;;;;;;1.77;1.50;;;;;;;;;;4989205;28;20858;-65
2022/07/02 03:22:36;;;;;;;3.77;1.60;;;;;;;;;;4987288;28;20194;-66
2022/07/02 03:25:07;;;;;;;2.63;1.50;;;;;;;;;;4970677;28;20231;-64
2022/07/02 03:27:39;;;;;;;2.77;1.53;;;;;;;;;;4983326;28;20209;-64
2022/07/02 03:30:12;;;;;;;2.70;1.60;;;;;;;;;;4967228;28;20204;-64
2022/07/02 03:32:43;;;;;;;4.27;1.60;;;;;;;;;;4986345;28;20275;-64
2022/07/02 03:35:14;;;;;;;2.87;1.50;;;;;;;;;;5002361;28;20845;-64
2022/07/02 03:37:57;;;;;;;2.23;1.60;;;;;;;;;;4981020;28;20200;-65
2022/07/02 03:40:27;;;;;;;2.80;1.70;;;;;;;;;;4981629;28;20208;-64
2022/07/02 03:42:57;;;;;;;2.63;1.60;;;;;;;;;;4983526;28;20199;-64
2022/07/02 03:45:27;;;;;;;2.30;1.50;;;;;;;;;;4966647;28;20204;-64
2022/07/02 03:47:56;;;;;;;2.90;1.57;;;;;;;;;;4988184;28;20219;-64
2022/07/02 03:50:27;;;;;;;2.60;1.57;;;;;;;;;;4969356;28;20604;-64
2022/07/02 03:52:56;;;;;;;2.10;1.43;;;;;;;;;;4981780;28;20220;-64
2022/07/02 03:55:26;;;;;;;1.83;1.27;;;;;;;;;;4985642;28;20220;-65
2022/07/02 03:57:56;;;;;;;1.90;1.60;;;;;;;;;;4987286;28;20204;-66
2022/07/02 04:00:30;;;;;;;2.83;1.40;;;;;;;;;;4990142;28;20299;-65
2022/07/02 04:03:04;;;;;;;2.50;1.50;;;;;;;;;;4971666;28;20201;-65
2022/07/02 04:05:38;;;;;;;2.87;1.60;;;;;;;;;;4987217;28;20204;-66
2022/07/02 04:08:09;;;;;;;2.43;1.50;;;;;;;;;;4987686;28;20207;-66
2022/07/02 04:10:40;;;;;;;2.37;1.50;;;;;;;;;;4986844;28;20259;-66
2022/07/02 04:13:11;;;;;;;2.40;1.53;;;;;;;;;;4985020;28;20197;-65
2022/07/02 04:15:41;;;;;;;2.37;1.53;;;;;;;;;;4981725;28;20267;-65
2022/07/02 04:18:18;;;;;;;2.40;1.50;;;;;;;;;;4989353;28;20303;-65
2022/07/02 04:20:47;;;;;;;3.33;1.87;;;;;;;;;;4987240;28;20216;-66
2022/07/02 04:23:17;;;;;;;4.23;1.43;;;;;;;;;;4988355;28;20197;-65
2022/07/02 04:25:46;;;;;;;1.97;1.77;;;;;;;;;;4987430;28;20200;-63
2022/07/02 04:28:16;;;;;;;4.60;1.87;;;;;;;;;;4978929;28;20676;-64
2022/07/02 04:30:46;;;;;;;4.93;1.47;;;;;;;;;;4985081;28;20520;-63
2022/07/02 04:33:15;;;;;;;2.97;1.73;;;;;;;;;;4987524;28;20613;-64
2022/07/02 04:35:50;;;;;;;2.53;1.70;;;;;;;;;;4970908;28;20224;-66
2022/07/02 04:38:21;;;;;;;2.53;1.67;;;;;;;;;;4987579;28;20196;-65
2022/07/02 04:40:52;;;;;;;3.57;2.00;;;;;;;;;;4980970;28;20212;-63
2022/07/02 04:43:28;;;;;;;3.30;1.80;;;;;;;;;;4982314;28;20188;-65
2022/07/02 04:46:12;;;;;;;2.53;1.87;;;;;;;;;;4983782;28;20570;-66
2022/07/02 04:48:45;;;;;;;2.63;1.80;;;;;;;;;;4977196;28;20207;-66
2022/07/02 04:51:17;;;;;;;3.40;1.80;;;;;;;;;;4967135;28;20216;-66
2022/07/02 04:53:55;;;;;;;2.57;1.60;;;;;;;;;;4986341;28;20204;-67
2022/07/02 04:56:27;;;;;;;2.87;1.70;;;;;;;;;;4983125;28;20266;-66
2022/07/02 04:59:01;;;;;;;2.53;2.13;;;;;;;;;;4980694;28;20299;-66
2022/07/02 05:01:30;;;;;;;4.13;1.90;;;;;;;;;;4987457;28;20192;-66
2022/07/02 05:04:03;;;;;;;2.60;1.80;;;;;;;;;;4982530;28;20200;-66
2022/07/02 05:06:35;;;;;;;3.03;1.80;;;;;;;;;;4987730;28;20251;-66
2022/07/02 05:09:09;;;;;;;3.10;1.80;;;;;;;;;;4983447;28;20680;-66
2022/07/02 05:11:38;;;;;;;5.33;2.20;;;;;;;;;;4976545;28;20226;-65
2022/07/02 05:14:08;;;;;;;4.57;2.20;;;;;;;;;;4968923;28;20227;-65
2022/07/02 05:16:41;;;;;;;3.73;2.10;;;;;;;;;;4978800;28;20239;-62
2022/07/02 05:19:11;;;;;;;4.83;1.87;;;;;;;;;;4989158;28;20201;-65
2022/07/02 05:21:43;;;;;;;3.10;1.70;;;;;;;;;;4988692;28;20259;-65
2022/07/02 05:24:14;;;;;;;2.70;1.83;;;;;;;;;;4986965;28;20211;-66
2022/07/02 05:26:42;;;;;;;3.93;1.90;;;;;;;;;;4985250;28;20200;-66
2022/07/02 05:29:13;;;;;;;3.33;1.80;;;;;;;;;;4967331;28;20199;-67
2022/07/02 05:31:47;;;;;;;3.27;1.90;;;;;;;;;;4968393;28;20185;-65
2022/07/02 05:34:18;;;;;;;3.23;2.00;;;;;;;;;;4980742;28;20323;-64
2022/07/02 05:36:49;;;;;;;4.83;2.60;;;;;;;;;;4979445;28;20279;-64
2022/07/02 05:39:18;;;;;;;2.97;1.60;;;;;;;;;;4967449;28;20217;-64
2022/07/02 05:41:51;;;;;;;3.80;1.87;;;;;;;;;;4981279;28;20215;-63
2022/07/02 05:44:23;;;;;;;2.23;1.47;;;;;;;;;;4984424;28;20238;-65
2022/07/02 05:46:55;;;;;;;2.97;2.10;;;;;;;;;;4984352;28;20216;-66
2022/07/02 05:49:27;;;;;;;3.10;1.90;;;;;;;;;;4986608;28;20196;-66
2022/07/02 05:51:59;;;;;;;2.73;1.70;;;;;;;;;;4983305;28;20216;-66
2022/07/02 05:54:30;;;;;;;8.13;1.93;;;;;;;;;;4985864;28;20200;-67
2022/07/02 05:57:01;;;;;;;3.03;1.60;;;;;;;;;;4950964;28;20220;-67
2022/07/02 05:59:30;;;;;;;3.20;1.90;;;;;;;;;;4985789;28;20204;-67
2022/07/02 06:02:01;;;;;;;3.00;2.10;;;;;;;;;;4984554;28;20198;-66
2022/07/02 06:04:33;;;;;;;4.20;1.77;;;;;;;;;;4979251;28;20208;-65
2022/07/02 06:09:53;;;;;;;3.13;1.77;;;;;;;;;;4985333;28;20204;-64
2022/07/02 06:12:27;;;;;;;2.57;1.47;;;;;;;;;;4985819;28;20220;-65
2022/07/02 06:14:55;;;;;;;5.23;2.07;;;;;;;;;;4973701;28;20657;-66
2022/07/02 06:17:23;;;;;;;3.40;2.00;;;;;;;;;;4970089;28;20880;-67
2022/07/02 06:19:57;;;;;;;4.13;1.87;;;;;;;;;;4984731;28;20192;-66
2022/07/02 06:22:28;;;;;;;6.90;2.07;;;;;;;;;;4986680;28;20577;-67
2022/07/02 06:24:59;;;;;;;4.10;2.20;;;;;;;;;;4988810;28;20687;-67
2022/07/02 06:27:27;;;;;;;4.03;2.10;;;;;;;;;;4987321;28;20224;-66
2022/07/02 06:29:58;;;;;;;5.33;2.10;;;;;;;;;;4986158;28;20576;-66
2022/07/02 06:32:36;;;;;;;3.43;2.00;;;;;;;;;;4988320;28;20404;-66
2022/07/02 06:35:07;;;;;;;3.07;1.87;;;;;;;;;;4985857;28;20266;-66
2022/07/02 06:37:36;;;;;;;2.47;2.07;;;;;;;;;;4989376;28;20548;-65
2022/07/02 06:40:08;;;;;;;4.40;2.23;;;;;;;;;;4984863;28;20209;-64
2022/07/02 06:42:37;;;;;;;3.83;1.90;;;;;;;;;;4989598;28;20681;-65
2022/07/02 06:45:10;;;;;;;5.87;2.00;;;;;;;;;;4985991;28;20188;-66
2022/07/02 06:47:43;;;;;;;4.60;1.97;;;;;;;;;;4969507;28;20216;-66
2022/07/02 06:50:16;;;;;;;2.37;1.53;;;;;;;;;;4971332;28;20764;-65
2022/07/02 06:52:48;;;;;;;2.80;1.60;;;;;;;;;;4976333;28;20615;-65
2022/07/02 06:55:20;;;;;;;5.07;1.70;;;;;;;;;;4988531;28;20204;-66
2022/07/02 06:57:53;;;;;;;4.03;1.80;;;;;;;;;;4988763;28;20822;-66
2022/07/02 07:00:23;;;;;;;3.83;1.97;;;;;;;;;;4988391;28;20195;-66
2022/07/02 07:02:56;;;;;;;4.33;1.50;;;;;;;;;;4972705;28;20293;-65
2022/07/02 07:05:27;;;;;;;5.03;1.60;;;;;;;;;;5002087;28;20199;-65
2022/07/02 07:08:01;;;;;;;3.53;1.33;;;;;;;;;;4980676;28;20620;-66
2022/07/02 07:10:33;;;;;;;2.60;1.40;;;;;;;;;;4971067;28;20188;-66
2022/07/02 07:13:02;;;;;;;3.83;1.30;;;;;;;;;;4986258;28;20224;-66
2022/07/02 07:15:30;;;;;;;2.10;1.27;;;;;;;;;;4976899;28;20228;-65
2022/07/02 07:18:01;;;;;;;3.20;1.50;;;;;;;;;;4988029;28;20678;-66
2022/07/02 07:20:34;;;;;;;4.53;1.43;;;;;;;;;;4986716;28;20188;-66
2022/07/02 07:23:06;;;;;;;4.63;1.63;;;;;;;;;;4988291;28;20204;-67
2022/07/02 07:25:39;;;;;;;6.60;1.70;;;;;;;;;;4988045;28;20212;-67
2022/07/02 07:28:13;;;;;;;2.90;1.33;;;;;;;;;;4983397;28;20220;-67
2022/07/02 07:30:44;;;;;;;2.33;1.20;;;;;;;;;;4971221;28;20270;-64
2022/07/02 07:33:25;;;;;;;4.03;1.43;;;;;;;;;;4988454;28;20200;-64
2022/07/02 07:35:54;;;;;;;2.60;1.47;;;;;;;;;;4984332;28;20777;-65
2022/07/02 07:38:23;;;;;;;4.63;1.20;;;;;;;;;;4974350;28;20789;-65
2022/07/02 07:40:55;;;;;;;4.47;1.23;;;;;;;;;;4980163;28;20208;-66
2022/07/02 07:43:25;;;;;;;2.53;1.00;;;;;;;;;;4987050;28;20255;-67
2022/07/02 07:45:56;;;;;;;3.23;1.50;;;;;;;;;;4970917;28;20192;-65
2022/07/02 07:48:28;;;;;;;2.83;1.50;;;;;;;;;;4971028;28;20214;-65
2022/07/02 07:50:59;;;;;;;2.60;1.30;;;;;;;;;;4981059;28;20196;-65
2022/07/02 07:53:31;;;;;;;2.67;1.40;;;;;;;;;;4986516;28;20206;-64
2022/07/02 07:56:03;;;;;;;1.40;1.10;;;;;;;;;;4982561;28;20652;-64
2022/07/02 07:58:39;;;;;;;2.97;1.10;;;;;;;;;;4981829;28;20213;-64
2022/07/02 08:01:10;;;;;;;2.93;1.07;;;;;;;;;;4984673;28;20196;-64
2022/07/02 08:03:44;;;;;;;2.50;1.30;;;;;;;;;;4976839;28;20607;-64
2022/07/02 08:06:15;;;;;;;4.00;1.27;;;;;;;;;;4968096;28;20271;-65
2022/07/02 08:08:48;;;;;;;3.13;1.13;;;;;;;;;;4985683;28;20207;-65
2022/07/02 08:11:19;;;;;;;3.27;1.20;;;;;;;;;;4987678;28;20200;-67
2022/07/02 08:13:51;;;;;;;4.13;1.23;;;;;;;;;;4971230;28;20327;-67
2022/07/02 08:16:23;;;;;;;4.70;1.73;;;;;;;;;;4981997;28;20302;-68
2022/07/02 08:18:51;;;;;;;4.77;1.50;;;;;;;;;;4970785;28;20637;-68
2022/07/02 08:21:23;;;;;;;7.53;1.50;;;;;;;;;;4973260;28;20185;-65
2022/07/02 08:23:53;;;;;;;5.57;1.20;;;;;;;;;;4972211;28;20200;-65
2022/07/02 08:26:25;;;;;;;3.37;1.27;;;;;;;;;;4988753;28;20729;-65
2022/07/02 08:29:03;;;;;;;2.63;1.60;;;;;;;;;;4983619;28;20220;-65
2022/07/02 08:31:34;;;;;;;5.67;1.40;;;;;;;;;;4991127;28;20208;-66
2022/07/02 08:34:09;;;;;;;2.07;1.10;;;;;;;;;;4972109;28;20196;-66
2022/07/02 08:36:41;;;;;;;3.87;1.27;;;;;;;;;;4988924;28;20689;-65
2022/07/02 08:39:12;;;;;;;5.07;1.27;;;;;;;;;;4980198;28;20284;-65
2022/07/02 08:41:46;;;;;;;3.27;1.33;;;;;;;;;;4969937;28;20208;-66
2022/07/02 08:44:22;;;;;;;4.23;1.30;;;;;;;;;;4969745;28;20207;-66
2022/07/02 08:46:54;;;;;;;3.20;1.20;;;;;;;;;;4967983;28;20213;-64
2022/07/02 08:49:22;;;;;;;3.90;1.60;;;;;;;;;;4971664;28;20531;-66
2022/07/02 08:52:07;;;;;;;5.43;1.27;;;;;;;;;;4980590;28;20221;-65
2022/07/02 08:54:41;;;;;;;3.63;1.10;;;;;;;;;;4986255;28;20757;-64
2022/07/02 08:57:13;;;;;;;3.43;1.03;;;;;;;;;;4988998;28;20221;-64
2022/07/02 08:59:42;;;;;;;2.00;1.10;;;;;;;;;;4971640;28;20934;-64
2022/07/02 09:02:14;;;;;;;3.47;1.30;;;;;;;;;;4974805;28;20196;-64
2022/07/02 09:04:49;;;;;;;2.10;1.00;;;;;;;;;;4982158;28;20691;-64
2022/07/02 09:07:22;;;;;;;3.27;1.23;;;;;;;;;;4971712;28;20200;-64
2022/07/02 09:09:50;;;;;;;3.73;1.17;;;;;;;;;;4970872;28;20668;-64
2022/07/02 09:12:23;;;;;;;2.00;0.87;;;;;;;;;;4972034;28;20604;-64
2022/07/02 09:14:55;;;;;;;2.30;1.13;;;;;;;;;;4982007;28;20230;-64
2022/07/02 09:17:24;;;;;;;2.70;1.30;;;;;;;;;;4971080;28;20262;-65
2022/07/02 09:19:54;;;;;;;2.70;1.17;;;;;;;;;;4988017;28;20795;-64
2022/07/02 09:22:33;;;;;;;2.47;1.20;;;;;;;;;;4971125;28;20191;-64
2022/07/02 09:25:11;;;;;;;3.33;1.10;;;;;;;;;;4983430;28;20192;-63
2022/07/02 09:27:46;;;;;;;2.00;1.17;;;;;;;;;;4983239;28;20215;-63
2022/07/02 09:30:18;;;;;;;6.40;1.17;;;;;;;;;;4969554;28;20193;-63
2022/07/02 09:33:28;;;;;;;3.13;1.47;;;;;;;;;;4985403;28;20219;-63
2022/07/02 09:35:49;;;;;;;8.90;3.17;;;;;;;;;;4981750;28;20196;-63
2022/07/02 09:38:20;;;;;;;5.67;2.20;;;;;;;;;;4987777;28;20204;-64
2022/07/02 09:40:55;;;;;;;4.67;1.80;;;;;;;;;;4979992;28;20223;-63
2022/07/02 09:43:37;;;;;;;6.20;1.83;;;;;;;;;;4963698;28;20205;-64
2022/07/02 09:46:19;;;;;;;2.40;1.50;;;;;;;;;;4996787;28;20196;-63
2022/07/02 09:48:50;;;;;;;4.30;1.30;;;;;;;;;;4982880;28;20185;-64
2022/07/02 09:51:19;;;;;;;2.63;1.27;;;;;;;;;;4983053;28;20220;-65
2022/07/02 09:53:55;;;;;;;4.23;1.57;;;;;;;;;;4970240;28;20263;-65
2022/07/02 09:56:34;;;;;;;3.27;1.30;;;;;;;;;;4973023;28;20215;-64
2022/07/02 09:59:14;;;;;;;5.67;1.30;;;;;;;;;;4984920;28;20260;-64
2022/07/02 10:01:49;;;;;;;4.30;1.20;;;;;;;;;;4999793;28;20324;-64
2022/07/02 10:04:32;;;;;;;2.20;1.10;;;;;;;;;;4969280;28;20208;-66
2022/07/02 10:07:03;;;;;;;2.80;1.23;;;;;;;;;;4958978;28;20219;-64
2022/07/02 10:09:32;;;;;;;2.70;1.20;;;;;;;;;;5000139;28;20205;-65
2022/07/02 10:12:05;;;;;;;3.47;1.40;;;;;;;;;;4974072;28;20282;-65
2022/07/02 10:14:38;;;;;;;4.30;1.17;;;;;;;;;;5006209;28;20202;-65
2022/07/02 10:17:11;;;;;;;2.10;1.17;;;;;;;;;;4990329;28;20650;-65
2022/07/02 10:19:52;;;;;;;2.53;1.40;;;;;;;;;;4989407;28;20192;-66
2022/07/02 10:22:22;;;;;;;5.90;2.43;;;;;;;;;;4986018;28;20836;-67
2022/07/02 10:24:58;;;;;;;6.93;2.20;;;;;;;;;;4970959;28;20732;-67
2022/07/02 10:27:42;;;;;;;5.17;1.47;;;;;;;;;;4978765;28;20217;-67
2022/07/02 10:30:15;;;;;;;2.30;1.37;;;;;;;;;;4989874;28;20188;-67
2022/07/02 10:32:57;;;;;;;2.80;1.17;;;;;;;;;;4971813;28;20624;-67
2022/07/02 10:35:28;;;;;;;2.70;1.20;;;;;;;;;;4990366;28;20543;-66
2022/07/02 10:38:00;;;;;;;3.13;1.20;;;;;;;;;;4990022;28;20279;-66
2022/07/02 10:40:30;;;;;;;2.00;1.10;;;;;;;;;;4986831;28;20739;-66
2022/07/02 10:43:02;;;;;;;1.57;1.10;;;;;;;;;;4988415;28;20196;-66
2022/07/02 10:45:32;;;;;;;1.27;0.80;;;;;;;;;;4989172;28;20215;-66
2022/07/02 10:48:10;;;;;;;3.57;0.83;;;;;;;;;;4989213;28;20208;-67
2022/07/02 10:50:45;;;;;;;2.00;1.10;;;;;;;;;;4990307;28;20325;-66
2022/07/02 10:53:21;;;;;;;2.60;0.83;;;;;;;;;;4989163;28;20204;-67
2022/07/02 10:55:54;;;;;;;1.73;0.77;;;;;;;;;;4973209;28;20196;-66
2022/07/02 10:58:26;;;;;;;2.37;1.00;;;;;;;;;;4973708;28;20212;-68
2022/07/02 11:01:09;;;;;;;1.87;1.20;;;;;;;;;;4954512;28;20231;-64
2022/07/02 11:04:11;;;;;;;3.40;1.00;;;;;;;;;;4984520;28;20215;-63
2022/07/02 11:06:44;;;;;;;3.23;1.10;;;;;;;;;;4978714;28;20220;-66
2022/07/02 11:09:15;;;;;;;2.87;1.03;;;;;;;;;;4984408;28;20764;-66
2022/07/02 11:11:42;;;;;;;1.83;0.80;;;;;;;;;;4964784;28;20216;-65
2022/07/02 11:14:16;;;;;;;2.50;1.03;;;;;;;;;;4986932;28;20230;-66
2022/07/02 11:16:49;;;;;;;5.80;1.00;;;;;;;;;;4964854;28;20238;-66
2022/07/02 11:19:24;;;;;;;1.43;0.70;;;;;;;;;;4957106;28;20200;-66
2022/07/02 11:21:58;;;;;;;2.33;0.80;;;;;;;;;;4972228;28;20207;-66
2022/07/02 11:24:31;;;;;;;1.83;0.77;;;;;;;;;;4989476;28;20215;-66
2022/07/02 11:27:02;;;;;;;2.30;0.70;;;;;;;;;;4965213;28;20974;-66
2022/07/02 11:29:32;;;;;;;3.67;0.90;;;;;;;;;;4971101;28;20188;-66
2022/07/02 11:32:04;;;;;;;4.07;0.80;;;;;;;;;;4988961;28;20216;-66
2022/07/02 11:34:36;;;;;;;1.80;0.80;;;;;;;;;;4983427;28;20205;-66
2022/07/02 11:37:08;;;;;;;3.13;0.90;;;;;;;;;;4987063;28;20572;-66
2022/07/02 11:39:37;;;;;;;2.00;0.83;;;;;;;;;;4986363;28;20649;-66
2022/07/02 11:42:06;;;;;;;1.57;0.70;;;;;;;;;;4990310;28;20197;-66
2022/07/02 11:44:40;;;;;;;1.93;0.80;;;;;;;;;;5000625;28;20191;-66
2022/07/02 11:47:10;;;;;;;1.53;0.70;;;;;;;;;;4989499;28;20303;-66
2022/07/02 11:49:41;;;;;;;2.37;0.87;;;;;;;;;;4988478;28;20216;-66
2022/07/02 11:52:10;;;;;;;0.90;0.80;;;;;;;;;;4983049;28;20212;-66
2022/07/02 11:54:41;;;;;;;2.10;0.73;;;;;;;;;;4988043;28;20222;-66
2022/07/02 11:57:11;;;;;;;2.63;1.10;;;;;;;;;;5004953;28;20216;-67
2022/07/02 11:59:41;;;;;;;2.00;0.73;;;;;;;;;;4990025;28;20197;-67
2022/07/02 12:02:10;;;;;;;1.40;0.80;;;;;;;;;;4955747;28;20752;-67
2022/07/02 12:04:41;;;;;;;2.87;0.67;;;;;;;;;;4975465;28;20208;-66
2022/07/02 12:07:12;;;;;;;1.83;0.60;;;;;;;;;;4987061;28;20213;-67
2022/07/02 12:09:43;;;;;;;0.83;0.70;;;;;;;;;;4987746;28;20196;-67
2022/07/02 12:12:12;;;;;;;5.03;0.70;;;;;;;;;;4956384;28;20232;-67
2022/07/02 12:14:59;;;;;;;1.70;0.87;;;;;;;;;;4961491;28;20203;-67
2022/07/02 12:17:28;;;;;;;0.77;0.60;;;;;;;;;;4970582;28;20267;-66
2022/07/02 12:19:58;;;;;;;2.07;0.77;;;;;;;;;;4985858;28;20198;-66
2022/07/02 12:22:29;;;;;;;1.20;0.60;;;;;;;;;;4989611;28;20209;-66
2022/07/02 12:25:06;;;;;;;1.07;0.70;;;;;;;;;;4986268;28;20230;-67
2022/07/02 12:27:54;;;;;;;1.40;0.77;;;;;;;;;;4970182;28;20244;-67
2022/07/02 12:30:24;;;;;;;3.80;0.87;;;;;;;;;;4987207;28;20196;-66
2022/07/02 12:32:57;;;;;;;1.73;0.70;;;;;;;;;;4985394;28;20192;-66
2022/07/02 12:35:28;;;;;;;1.60;0.80;;;;;;;;;;4987700;28;20189;-66
2022/07/02 12:37:58;;;;;;;1.93;1.00;;;;;;;;;;4988928;28;20746;-66
2022/07/02 12:40:30;;;;;;;1.13;0.60;;;;;;;;;;4985571;28;20267;-66
2022/07/02 12:43:02;;;;;;;3.13;0.90;;;;;;;;;;4983963;28;20200;-66
2022/07/02 12:45:42;;;;;;;1.47;0.70;;;;;;;;;;4965623;28;20197;-66
2022/07/02 12:48:19;;;;;;;1.27;0.60;;;;;;;;;;4985339;28;20802;-67
2022/07/02 12:50:54;;;;;;;1.50;0.87;;;;;;;;;;4980043;28;20216;-66
2022/07/02 12:53:26;;;;;;;2.07;0.87;;;;;;;;;;4987275;28;20664;-67
2022/07/02 12:56:04;;;;;;;1.20;0.90;;;;;;;;;;4986710;28;20203;-66
2022/07/02 12:58:37;;;;;;;1.10;0.80;;;;;;;;;;4987118;28;20208;-66
2022/07/02 13:01:10;;;;;;;1.40;0.70;;;;;;;;;;4985623;28;20199;-66
2022/07/02 13:03:40;;;;;;;2.23;0.90;;;;;;;;;;4962124;28;20265;-66
2022/07/02 13:06:12;;;;;;;1.33;0.60;;;;;;;;;;4971431;28;20264;-66
2022/07/02 13:08:41;;;;;;;3.30;0.60;;;;;;;;;;5002229;28;20614;-66
2022/07/02 13:11:11;;;;;;;1.40;0.70;;;;;;;;;;4987383;28;20196;-65
2022/07/02 13:13:43;;;;;;;2.03;0.67;;;;;;;;;;4982360;28;20204;-66
2022/07/02 13:16:12;;;;;;;2.50;0.83;;;;;;;;;;4983164;28;20234;-66
2022/07/02 13:18:41;;;;;;;1.17;0.80;;;;;;;;;;4986568;28;20236;-66
2022/07/02 13:21:10;;;;;;;1.60;0.63;;;;;;;;;;4943842;28;20244;-66
2022/07/02 13:23:42;;;;;;;5.40;1.33;;;;;;;;;;4967582;28;21787;-67
2022/07/02 13:26:10;;;;;;;5.00;0.90;;;;;;;;;;4986333;28;20189;-67
2022/07/02 13:28:40;;;;;;;2.60;0.80;;;;;;;;;;4980573;28;20239;-67
2022/07/02 13:31:07;;;;;;;2.97;0.70;;;;;;;;;;4998772;28;20203;-65
2022/07/02 13:33:39;;;;;;;2.50;0.87;;;;;;;;;;4987757;28;20631;-65
2022/07/02 13:36:10;;;;;;;1.57;0.80;;;;;;;;;;4986103;28;20219;-65
2022/07/02 13:38:41;;;;;;;4.53;0.70;;;;;;;;;;4983729;28;20220;-65
2022/07/02 13:41:11;;;;;;;1.30;0.70;;;;;;;;;;4982989;28;20215;-66
2022/07/02 13:43:41;;;;;;;3.80;0.80;;;;;;;;;;4985543;28;20196;-66
2022/07/02 13:46:16;;;;;;;1.80;0.77;;;;;;;;;;4986986;28;20231;-66
2022/07/02 13:48:46;;;;;;;1.17;0.73;;;;;;;;;;4958997;28;20232;-65
2022/07/02 13:51:17;;;;;;;1.60;0.90;;;;;;;;;;4980580;28;20216;-66
2022/07/02 13:53:48;;;;;;;1.07;0.70;;;;;;;;;;4986881;28;20212;-66
2022/07/02 13:56:20;;;;;;;2.87;0.67;;;;;;;;;;4986694;28;20208;-66
2022/07/02 13:58:54;;;;;;;3.10;0.70;;;;;;;;;;4984364;28;20657;-66
2022/07/02 14:01:29;;;;;;;3.57;1.03;;;;;;;;;;4967840;28;20226;-66
2022/07/02 14:04:00;;;;;;;1.83;0.80;;;;;;;;;;4982917;28;20519;-66
2022/07/02 14:06:31;;;;;;;1.17;0.80;;;;;;;;;;4953640;28;20246;-67
2022/07/02 14:09:06;;;;;;;1.10;0.80;;;;;;;;;;4967076;28;20188;-67
2022/07/02 14:11:38;;;;;;;1.07;0.80;;;;;;;;;;4987155;28;20254;-67
2022/07/02 14:14:09;;;;;;;1.97;0.80;;;;;;;;;;4969691;28;20685;-67
2022/07/02 14:16:42;;;;;;;3.97;1.00;;;;;;;;;;4983718;28;20212;-67
2022/07/02 14:19:12;;;;;;;5.87;0.80;;;;;;;;;;4987763;28;20220;-67
2022/07/02 14:21:44;;;;;;;3.10;1.10;;;;;;;;;;4983490;28;20192;-66
2022/07/02 14:24:17;;;;;;;1.87;0.97;;;;;;;;;;4983882;28;20216;-67
2022/07/02 14:26:46;;;;;;;2.73;1.13;;;;;;;;;;4975160;28;20319;-67
2022/07/02 14:29:15;;;;;;;1.70;0.70;;;;;;;;;;4983439;28;20641;-67
2022/07/02 14:31:48;;;;;;;1.00;0.90;;;;;;;;;;4987194;28;20673;-67
2022/07/02 14:34:22;;;;;;;1.93;0.83;;;;;;;;;;4987827;28;20208;-67
2022/07/02 14:36:52;;;;;;;1.97;0.83;;;;;;;;;;4960587;28;20269;-67
2022/07/02 14:39:32;;;;;;;2.47;0.80;;;;;;;;;;4982394;28;20325;-67
2022/07/02 14:42:05;;;;;;;6.10;1.17;;;;;;;;;;4989250;28;20205;-67
2022/07/02 14:44:36;;;;;;;3.50;1.60;;;;;;;;;;4989983;28;20212;-67
2022/07/02 14:47:08;;;;;;;14.07;3.10;;;;;;;;;;5000996;28;20386;-66
2022/07/02 14:49:40;;;;;;;15.80;2.80;;;;;;;;;;4986784;28;20196;-65
2022/07/02 14:52:11;;;;;;;10.13;3.10;;;;;;;;;;4978017;28;20248;-66
2022/07/02 14:54:45;;;;;;;7.20;2.23;;;;;;;;;;4964395;28;20672;-66
2022/07/02 14:57:17;;;;;;;7.10;2.10;;;;;;;;;;4985347;28;20553;-66
2022/07/02 14:59:46;;;;;;;5.67;1.50;;;;;;;;;;4964891;28;20197;-66
2022/07/02 15:02:20;;;;;;;5.47;1.60;;;;;;;;;;4986295;28;20264;-66
2022/07/02 15:04:50;;;;;;;3.23;1.63;;;;;;;;;;4980196;28;20209;-65
2022/07/02 15:07:21;;;;;;;3.50;1.33;;;;;;;;;;4987794;28;20200;-65
2022/07/02 15:09:50;;;;;;;2.00;1.20;;;;;;;;;;4987054;28;20645;-65
2022/07/02 15:12:23;;;;;;;2.83;1.40;;;;;;;;;;4966880;28;20570;-66
2022/07/02 15:17:42;;;;;;;2.67;1.30;;;;;;;;;;4978913;28;20237;-66
2022/07/02 15:20:17;;;;;;;2.00;1.20;;;;;;;;;;4969518;28;20288;-66
2022/07/02 15:22:54;;;;;;;1.80;1.20;;;;;;;;;;4970441;28;20575;-66